Time;durP1;ratioP1;P1;durP2;ratioP2;P2;SDS_P1;SDS_P2;PMS_P1;PMS_P2;Temp;Humidity;BMP_temperature;BMP_pressure;BME280_temperature;BME280_humidity;BME280_pressure;Samples;Min_cycle;Max_cycle;Signal;HPM_P1;HPM_P2
2021/05/18 00:00:34;;;;;;;0.50;0.30;;;;;;;;;;4999153;28;20077;-73
2021/05/18 00:03:10;;;;;;;0.75;0.30;;;;;;;;;;5005252;28;20050;-73
2021/05/18 00:05:38;;;;;;;0.50;0.30;;;;;;;;;;5017524;28;20558;-74
2021/05/18 00:08:07;;;;;;;0.40;0.28;;;;;;;;;;5010776;28;20084;-75
2021/05/18 00:13:24;;;;;;;0.60;0.40;;;;;;;;;;5032411;28;20068;-74
2021/05/18 00:15:54;;;;;;;0.77;0.20;;;;;;;;;;5031035;28;20103;-74
2021/05/18 00:18:21;;;;;;;1.15;0.25;;;;;;;;;;5014368;28;20053;-74
2021/05/18 00:20:48;;;;;;;1.13;0.30;;;;;;;;;;5013757;28;20095;-74
2021/05/18 00:23:14;;;;;;;0.45;0.30;;;;;;;;;;5014170;28;20128;-76
2021/05/18 00:25:41;;;;;;;1.10;0.50;;;;;;;;;;5013671;28;20053;-75
2021/05/18 00:28:08;;;;;;;2.33;0.50;;;;;;;;;;5014738;28;20127;-76
2021/05/18 00:30:35;;;;;;;0.30;0.30;;;;;;;;;;5017704;28;20041;-76
2021/05/18 00:33:04;;;;;;;2.10;0.40;;;;;;;;;;5017670;28;20103;-76
2021/05/18 00:35:31;;;;;;;0.30;0.25;;;;;;;;;;5017439;28;20053;-76
2021/05/18 00:37:57;;;;;;;1.23;0.30;;;;;;;;;;5014009;28;20516;-76
2021/05/18 00:40:24;;;;;;;0.40;0.30;;;;;;;;;;4997699;28;20045;-76
2021/05/18 00:42:52;;;;;;;0.55;0.47;;;;;;;;;;5015278;28;20053;-75
2021/05/18 00:45:35;;;;;;;1.02;0.47;;;;;;;;;;5021256;28;20083;-75
2021/05/18 00:48:02;;;;;;;0.30;0.25;;;;;;;;;;5033786;28;20061;-74
2021/05/18 00:50:30;;;;;;;0.40;0.30;;;;;;;;;;5017321;28;20485;-74
2021/05/18 00:52:56;;;;;;;0.50;0.30;;;;;;;;;;5016812;28;20046;-75
2021/05/18 00:55:48;;;;;;;0.55;0.30;;;;;;;;;;5016703;28;20471;-74
2021/05/18 00:58:31;;;;;;;0.30;0.30;;;;;;;;;;5034434;28;20052;-74
2021/05/18 01:01:02;;;;;;;0.60;0.40;;;;;;;;;;5033505;28;20320;-75
2021/05/18 01:03:29;;;;;;;0.30;0.30;;;;;;;;;;5034413;28;20064;-74
2021/05/18 01:08:42;;;;;;;1.20;0.20;;;;;;;;;;4999878;28;20076;-75
2021/05/18 01:11:09;;;;;;;0.32;0.30;;;;;;;;;;4997215;28;20042;-74
2021/05/18 01:13:36;;;;;;;0.10;0.10;;;;;;;;;;5013251;28;20057;-75
2021/05/18 01:16:04;;;;;;;0.32;0.32;;;;;;;;;;5012999;28;20054;-75
2021/05/18 01:18:39;;;;;;;1.08;0.40;;;;;;;;;;4997002;28;20054;-73
2021/05/18 01:21:06;;;;;;;1.67;0.40;;;;;;;;;;5008431;28;20566;-75
2021/05/18 01:23:34;;;;;;;0.30;0.30;;;;;;;;;;5012807;28;20092;-74
2021/05/18 01:26:01;;;;;;;0.32;0.30;;;;;;;;;;4996363;28;20054;-74
2021/05/18 01:28:28;;;;;;;1.13;0.40;;;;;;;;;;5013037;28;20057;-74
2021/05/18 01:30:55;;;;;;;0.38;0.30;;;;;;;;;;4996900;28;20108;-74
2021/05/18 01:33:22;;;;;;;0.40;0.20;;;;;;;;;;4996637;28;20090;-74
2021/05/18 01:35:49;;;;;;;0.30;0.30;;;;;;;;;;4996470;28;20421;-72
2021/05/18 01:38:20;;;;;;;1.00;0.38;;;;;;;;;;4980665;28;20054;-75
2021/05/18 01:43:32;;;;;;;1.23;0.40;;;;;;;;;;5012932;28;20070;-74
2021/05/18 01:45:58;;;;;;;1.48;0.30;;;;;;;;;;5013500;28;20567;-75
2021/05/18 01:48:25;;;;;;;0.43;0.43;;;;;;;;;;5012702;28;20072;-75
2021/05/18 01:50:52;;;;;;;0.20;0.20;;;;;;;;;;5012616;28;20050;-74
2021/05/18 01:53:19;;;;;;;0.20;0.20;;;;;;;;;;4996663;28;20112;-75
2021/05/18 01:56:15;;;;;;;1.23;0.35;;;;;;;;;;5012659;28;20513;-75
2021/05/18 01:58:42;;;;;;;0.20;0.20;;;;;;;;;;5032481;28;20057;-75
2021/05/18 02:01:09;;;;;;;0.68;0.30;;;;;;;;;;5032259;28;20428;-75
2021/05/18 02:03:35;;;;;;;1.90;0.43;;;;;;;;;;5031990;28;20480;-76
2021/05/18 02:06:03;;;;;;;0.35;0.30;;;;;;;;;;5019636;28;20079;-76
2021/05/18 02:08:29;;;;;;;0.30;0.30;;;;;;;;;;5015686;28;20046;-76
2021/05/18 02:10:56;;;;;;;0.85;0.30;;;;;;;;;;5015528;28;20049;-75
2021/05/18 02:13:22;;;;;;;1.00;0.40;;;;;;;;;;5031977;28;20104;-75
2021/05/18 02:16:26;;;;;;;1.13;0.30;;;;;;;;;;5031451;28;20049;-76
2021/05/18 02:27:21;;;;;;;0.40;0.40;;;;;;;;;;4952034;29;20083;-76
2021/05/18 02:29:48;;;;;;;0.40;0.30;;;;;;;;;;4920847;29;20051;-76
2021/05/18 02:32:15;;;;;;;1.70;0.50;;;;;;;;;;4990811;28;20111;-76
2021/05/18 02:34:42;;;;;;;0.40;0.40;;;;;;;;;;5015137;28;20079;-76
2021/05/18 02:37:08;;;;;;;3.83;0.52;;;;;;;;;;5031352;28;20389;-76
2021/05/18 02:39:35;;;;;;;0.85;0.25;;;;;;;;;;5031368;28;20097;-75
2021/05/18 02:42:01;;;;;;;0.38;0.32;;;;;;;;;;5031322;28;20471;-76
2021/05/18 02:44:45;;;;;;;0.40;0.30;;;;;;;;;;5015204;28;20050;-76
2021/05/18 02:49:57;;;;;;;0.60;0.30;;;;;;;;;;5011782;28;20497;-75
2021/05/18 02:52:24;;;;;;;0.93;0.40;;;;;;;;;;4995198;28;20077;-75
2021/05/18 02:54:53;;;;;;;2.45;0.35;;;;;;;;;;4994833;28;20054;-75
2021/05/18 02:57:34;;;;;;;0.25;0.25;;;;;;;;;;5011327;28;20463;-76
2021/05/18 03:00:11;;;;;;;0.52;0.40;;;;;;;;;;5011423;28;20119;-74
2021/05/18 03:02:38;;;;;;;0.52;0.35;;;;;;;;;;4995935;28;20425;-75
2021/05/18 03:05:05;;;;;;;0.47;0.45;;;;;;;;;;5011179;28;20489;-75
2021/05/18 03:07:32;;;;;;;0.30;0.30;;;;;;;;;;5011029;28;20075;-75
2021/05/18 03:10:02;;;;;;;0.80;0.35;;;;;;;;;;4995127;28;20049;-75
2021/05/18 03:12:29;;;;;;;0.68;0.50;;;;;;;;;;5011140;28;20050;-74
2021/05/18 03:14:56;;;;;;;0.63;0.40;;;;;;;;;;5010869;28;20111;-74
2021/05/18 03:17:22;;;;;;;1.33;0.40;;;;;;;;;;4994737;28;20108;-75
2021/05/18 03:19:49;;;;;;;0.95;0.47;;;;;;;;;;5011117;28;20053;-74
2021/05/18 03:22:16;;;;;;;0.50;0.30;;;;;;;;;;5025776;28;20088;-75
2021/05/18 03:24:42;;;;;;;0.40;0.30;;;;;;;;;;5030328;28;20095;-74
2021/05/18 03:27:10;;;;;;;0.57;0.30;;;;;;;;;;5012143;28;20424;-75
2021/05/18 03:29:37;;;;;;;0.57;0.40;;;;;;;;;;4996221;28;20524;-75
2021/05/18 03:34:50;;;;;;;1.02;0.30;;;;;;;;;;5024551;28;20500;-74
2021/05/18 03:39:51;;;;;;;1.35;0.30;;;;;;;;;;5011334;28;20054;-76
2021/05/18 03:42:32;;;;;;;0.63;0.30;;;;;;;;;;5020794;28;20087;-76
2021/05/18 04:04:09;;;;;;;1.30;0.45;;;;;;;;;;5033519;28;20057;-74
2021/05/18 04:17:41;;;;;;;0.43;0.40;;;;;;;;;;5025019;28;20103;-74
2021/05/18 05:06:21;;;;;;;0.65;0.40;;;;;;;;;;5030520;28;20093;-74
2021/05/18 05:16:32;;;;;;;1.25;0.50;;;;;;;;;;5030152;28;20107;-74
2021/05/18 05:18:59;;;;;;;0.80;0.60;;;;;;;;;;5031481;28;20099;-74
2021/05/18 05:21:30;;;;;;;1.85;0.60;;;;;;;;;;5032236;28;20053;-74
2021/05/18 05:23:57;;;;;;;1.83;1.13;;;;;;;;;;5011549;28;20093;-74
2021/05/18 05:26:24;;;;;;;0.90;0.60;;;;;;;;;;5010784;28;20058;-74
2021/05/18 05:28:50;;;;;;;2.00;0.57;;;;;;;;;;5010845;28;20173;-74
2021/05/18 05:31:17;;;;;;;0.43;0.43;;;;;;;;;;5022948;28;20064;-73
2021/05/18 05:33:44;;;;;;;0.57;0.40;;;;;;;;;;5031238;28;20045;-71
2021/05/18 05:36:10;;;;;;;0.38;0.30;;;;;;;;;;5030186;28;20076;-74
2021/05/18 05:38:38;;;;;;;1.15;0.73;;;;;;;;;;5011969;28;20100;-76
2021/05/18 05:41:05;;;;;;;1.60;0.40;;;;;;;;;;5028427;28;20049;-74
2021/05/18 05:43:31;;;;;;;0.65;0.65;;;;;;;;;;5030455;28;20458;-75
2021/05/18 05:45:58;;;;;;;2.13;0.55;;;;;;;;;;5029940;28;20068;-74
2021/05/18 05:48:25;;;;;;;0.60;0.45;;;;;;;;;;5031608;28;20054;-74
2021/05/18 05:50:51;;;;;;;3.03;0.65;;;;;;;;;;5018624;28;20065;-74
2021/05/18 05:53:18;;;;;;;1.10;0.50;;;;;;;;;;5010413;28;20050;-74
2021/05/18 05:55:44;;;;;;;0.45;0.45;;;;;;;;;;5011386;28;20196;-74
2021/05/18 05:58:11;;;;;;;2.35;0.70;;;;;;;;;;5010297;28;20054;-75
2021/05/18 06:00:39;;;;;;;1.50;0.60;;;;;;;;;;5016011;28;20049;-72
2021/05/18 06:03:05;;;;;;;0.70;0.47;;;;;;;;;;5030900;28;20091;-70
2021/05/18 06:05:32;;;;;;;1.10;0.70;;;;;;;;;;5030411;28;20089;-70
2021/05/18 06:07:58;;;;;;;0.73;0.70;;;;;;;;;;5013512;28;20112;-70
2021/05/18 06:10:35;;;;;;;1.10;0.80;;;;;;;;;;5011014;28;20053;-69
2021/05/18 06:35:36;;;;;;;3.40;1.55;;;;;;;;;;5023234;28;20412;-69
2021/05/18 06:41:08;;;;;;;1.88;0.90;;;;;;;;;;5023425;28;20496;-70
2021/05/18 06:48:21;;;;;;;1.30;0.80;;;;;;;;;;5020358;28;20046;-69
2021/05/18 06:50:49;;;;;;;4.60;0.73;;;;;;;;;;5017330;28;20053;-70
2021/05/18 06:53:16;;;;;;;0.88;0.80;;;;;;;;;;5019574;28;20049;-71
2021/05/18 06:55:43;;;;;;;5.55;2.10;;;;;;;;;;5017374;28;20274;-69
2021/05/18 06:58:17;;;;;;;97.25;22.52;;;;;;;;;;5019664;28;20072;-69
2021/05/18 07:00:45;;;;;;;206.98;43.25;;;;;;;;;;5019189;28;20087;-68
2021/05/18 07:03:15;;;;;;;14.30;4.57;;;;;;;;;;5019010;28;20088;-68
2021/05/18 07:05:54;;;;;;;2.78;0.80;;;;;;;;;;5018734;28;20459;-69
2021/05/18 07:10:54;;;;;;;12.25;2.92;;;;;;;;;;5020397;28;20088;-68
2021/05/18 07:13:20;;;;;;;0.93;0.80;;;;;;;;;;5018555;28;20529;-68
2021/05/18 07:15:47;;;;;;;1.25;0.60;;;;;;;;;;5017621;28;20081;-69
2021/05/18 07:18:14;;;;;;;0.98;0.60;;;;;;;;;;5019298;28;20111;-68
2021/05/18 07:20:40;;;;;;;2.38;1.33;;;;;;;;;;5017172;28;20489;-71
2021/05/18 07:23:09;;;;;;;2.97;0.80;;;;;;;;;;5019076;28;20591;-68
2021/05/18 07:25:36;;;;;;;3.05;0.68;;;;;;;;;;5016511;28;20120;-69
2021/05/18 07:28:07;;;;;;;0.68;0.60;;;;;;;;;;5019605;28;20054;-68
2021/05/18 07:30:35;;;;;;;2.05;1.40;;;;;;;;;;5020015;28;20053;-69
2021/05/18 07:33:02;;;;;;;1.58;0.70;;;;;;;;;;5018880;28;20050;-67
2021/05/18 07:35:29;;;;;;;1.48;0.80;;;;;;;;;;5017770;28;20061;-70
2021/05/18 07:37:55;;;;;;;2.47;1.00;;;;;;;;;;5017588;28;20045;-70
2021/05/18 07:40:22;;;;;;;1.02;0.55;;;;;;;;;;5021219;28;20092;-69
2021/05/18 07:42:51;;;;;;;2.63;0.70;;;;;;;;;;5021561;28;20045;-71
2021/05/18 07:45:21;;;;;;;1.05;0.65;;;;;;;;;;5022432;28;20045;-69
2021/05/18 07:47:47;;;;;;;3.25;0.68;;;;;;;;;;5019311;28;20081;-71
2021/05/18 07:50:20;;;;;;;3.80;0.70;;;;;;;;;;5019315;28;20081;-71
2021/05/18 08:01:16;;;;;;;1.48;0.60;;;;;;;;;;5022991;28;20573;-74
2021/05/18 08:06:27;;;;;;;0.50;0.50;;;;;;;;;;5008803;28;20079;-72
2021/05/18 08:08:54;;;;;;;1.88;0.93;;;;;;;;;;5019112;28;20459;-71
2021/05/18 08:11:20;;;;;;;3.55;1.20;;;;;;;;;;5023496;28;20108;-73
2021/05/18 08:13:54;;;;;;;2.47;0.82;;;;;;;;;;5019313;28;20463;-73
2021/05/18 10:26:03;;;;;;;0.47;0.20;;;;;;;;;;5021386;28;20050;-71
2021/05/18 10:35:31;;;;;;;1.70;0.57;;;;;;;;;;5016030;28;20084;-71
2021/05/18 10:38:04;;;;;;;1.90;0.55;;;;;;;;;;5013073;28;20106;-70
2021/05/18 10:40:40;;;;;;;0.45;0.40;;;;;;;;;;5020253;28;20491;-69
2021/05/18 10:43:28;;;;;;;1.65;0.60;;;;;;;;;;5018679;28;20082;-69
2021/05/18 10:45:55;;;;;;;1.15;0.50;;;;;;;;;;5017559;28;20516;-70
2021/05/18 10:48:31;;;;;;;1.50;0.70;;;;;;;;;;5021352;28;20045;-70
2021/05/18 10:50:58;;;;;;;2.85;0.40;;;;;;;;;;5019374;28;20054;-71
2021/05/18 10:53:28;;;;;;;3.40;0.60;;;;;;;;;;5017497;28;20489;-71
2021/05/18 10:56:21;;;;;;;2.55;0.70;;;;;;;;;;5020941;28;20053;-71
2021/05/18 10:58:48;;;;;;;3.60;0.60;;;;;;;;;;5016846;28;20077;-71
2021/05/18 11:01:15;;;;;;;2.05;0.50;;;;;;;;;;5017500;28;20056;-69
2021/05/18 11:03:41;;;;;;;1.92;0.45;;;;;;;;;;5020929;28;20258;-70
2021/05/18 11:06:09;;;;;;;1.83;0.38;;;;;;;;;;5004964;28;20096;-70
2021/05/18 11:08:35;;;;;;;3.58;0.60;;;;;;;;;;5017234;28;20046;-71
2021/05/18 11:11:04;;;;;;;2.47;0.43;;;;;;;;;;5020331;28;20522;-68
2021/05/18 11:13:34;;;;;;;1.42;0.50;;;;;;;;;;5020106;28;20572;-67
2021/05/18 11:16:01;;;;;;;1.90;0.47;;;;;;;;;;5018146;28;20132;-67
2021/05/18 11:18:31;;;;;;;1.23;0.47;;;;;;;;;;5018024;28;20049;-67
2021/05/18 11:21:06;;;;;;;2.08;0.40;;;;;;;;;;5018461;28;20045;-67
2021/05/18 11:23:33;;;;;;;1.95;0.40;;;;;;;;;;4988933;28;20048;-67
2021/05/18 11:26:08;;;;;;;1.15;0.50;;;;;;;;;;5020005;28;20057;-67
2021/05/18 11:28:38;;;;;;;1.75;0.60;;;;;;;;;;5015734;28;20054;-69
2021/05/18 11:31:08;;;;;;;2.05;0.50;;;;;;;;;;5022557;28;20057;-69
2021/05/18 11:33:45;;;;;;;0.52;0.20;;;;;;;;;;5018330;28;20385;-69
2021/05/18 11:36:16;;;;;;;2.33;0.52;;;;;;;;;;5017964;28;20096;-69
2021/05/18 11:38:49;;;;;;;1.95;0.50;;;;;;;;;;5024175;28;20054;-69
2021/05/18 11:41:20;;;;;;;3.17;0.80;;;;;;;;;;5021738;28;20053;-69
2021/05/18 11:43:51;;;;;;;2.08;0.70;;;;;;;;;;5017966;28;20046;-69
2021/05/18 11:46:18;;;;;;;2.65;0.63;;;;;;;;;;5018887;28;20050;-69
2021/05/18 11:49:02;;;;;;;2.25;0.55;;;;;;;;;;5024513;28;20060;-69
2021/05/18 11:51:39;;;;;;;1.50;0.50;;;;;;;;;;5029956;28;20100;-69
2021/05/18 11:54:27;;;;;;;1.38;0.70;;;;;;;;;;5022173;28;20053;-69
2021/05/18 11:56:58;;;;;;;2.13;0.40;;;;;;;;;;5019331;28;20057;-69
2021/05/18 11:59:26;;;;;;;2.15;0.60;;;;;;;;;;5024740;28;20084;-69
2021/05/18 12:02:01;;;;;;;3.28;0.63;;;;;;;;;;5020908;28;20056;-69
2021/05/18 12:04:29;;;;;;;2.72;0.60;;;;;;;;;;5022833;28;20140;-69
2021/05/18 12:07:16;;;;;;;1.58;0.70;;;;;;;;;;5014636;28;20058;-69
2021/05/18 12:09:44;;;;;;;0.43;0.20;;;;;;;;;;5027951;28;20045;-69
2021/05/18 12:12:14;;;;;;;1.48;0.60;;;;;;;;;;5025431;28;20053;-69
2021/05/18 12:14:42;;;;;;;1.95;0.45;;;;;;;;;;5018308;28;20042;-70
2021/05/18 12:17:09;;;;;;;1.65;0.40;;;;;;;;;;5018875;28;20057;-70
2021/05/18 12:19:39;;;;;;;0.57;0.30;;;;;;;;;;5014108;28;20064;-69
2021/05/18 12:22:06;;;;;;;2.08;0.40;;;;;;;;;;5017681;28;20084;-72
2021/05/18 12:24:40;;;;;;;2.10;0.60;;;;;;;;;;5018378;28;20133;-72
2021/05/18 12:27:06;;;;;;;0.95;0.40;;;;;;;;;;5023500;28;20049;-72
2021/05/18 12:29:42;;;;;;;1.95;0.40;;;;;;;;;;5023203;28;20049;-73
2021/05/18 12:32:31;;;;;;;2.15;0.55;;;;;;;;;;5023604;28;20104;-73
2021/05/18 12:35:15;;;;;;;1.55;0.50;;;;;;;;;;5023430;28;20123;-74
2021/05/18 12:37:51;;;;;;;1.77;0.40;;;;;;;;;;5023380;28;20045;-74
2021/05/18 12:40:34;;;;;;;2.10;0.55;;;;;;;;;;5014583;28;20048;-73
2021/05/18 12:43:24;;;;;;;1.35;0.43;;;;;;;;;;5020298;28;20094;-75
2021/05/18 12:46:13;;;;;;;1.88;0.38;;;;;;;;;;5013811;28;20053;-74
2021/05/18 12:48:47;;;;;;;4.03;0.98;;;;;;;;;;5021183;28;20566;-74
2021/05/18 12:51:21;;;;;;;1.58;0.35;;;;;;;;;;5024073;28;20054;-74
2021/05/18 12:53:48;;;;;;;1.02;0.22;;;;;;;;;;5021845;28;20050;-72
2021/05/18 12:57:18;;;;;;;2.25;0.63;;;;;;;;;;5034279;23;20107;-72
2021/05/18 13:00:08;;;;;;;2.25;0.32;;;;;;;;;;4961790;28;20454;-74
2021/05/18 13:02:54;;;;;;;2.13;0.60;;;;;;;;;;4992148;28;20057;-74
2021/05/18 13:05:33;;;;;;;0.82;0.60;;;;;;;;;;5005655;28;20397;-73
2021/05/18 13:08:03;;;;;;;1.75;0.60;;;;;;;;;;5029413;28;20473;-73
2021/05/18 13:14:33;;;;;;;1.13;0.40;;;;;;;;;;5029813;28;20049;-74
2021/05/18 13:17:18;;;;;;;4.78;0.50;;;;;;;;;;5004753;28;20088;-77
2021/05/18 13:27:09;;;;;;;2.97;0.50;;;;;;;;;;4954701;28;20121;-75
2021/05/18 13:29:53;;;;;;;0.75;0.30;;;;;;;;;;4963208;28;20050;-77
2021/05/18 13:32:34;;;;;;;0.57;0.40;;;;;;;;;;4919283;28;20494;-78
2021/05/18 13:36:08;;;;;;;;;;;;;;;;;;;;;
2021/05/18 13:39:09;;;;;;;2.92;0.50;;;;;;;;;;4954445;28;20085;-73
2021/05/18 13:41:40;;;;;;;0.47;0.20;;;;;;;;;;4934792;28;20059;-72
2021/05/18 13:44:08;;;;;;;0.40;0.30;;;;;;;;;;5001028;28;20401;-73
2021/05/18 13:46:36;;;;;;;0.50;0.20;;;;;;;;;;5030947;28;20103;-70
2021/05/18 13:49:14;;;;;;;0.57;0.20;;;;;;;;;;5032501;28;20134;-72
2021/05/18 13:51:43;;;;;;;0.30;0.20;;;;;;;;;;5031786;28;20081;-75
2021/05/18 13:54:38;;;;;;;2.70;0.20;;;;;;;;;;5028497;28;20049;-72
2021/05/18 13:57:06;;;;;;;0.70;0.25;;;;;;;;;;5031341;28;20060;-73
2021/05/18 13:59:36;;;;;;;1.42;0.30;;;;;;;;;;4988249;28;20451;-73
2021/05/18 14:02:09;;;;;;;1.02;0.30;;;;;;;;;;4998953;28;20073;-74
2021/05/18 14:05:00;;;;;;;1.40;0.65;;;;;;;;;;5035344;28;20042;-74
2021/05/18 14:10:35;;;;;;;2.40;0.38;;;;;;;;;;4998508;28;20045;-72
2021/05/18 14:13:02;;;;;;;1.25;0.50;;;;;;;;;;4967830;28;21157;-72
2021/05/18 14:15:29;;;;;;;3.10;0.55;;;;;;;;;;5017504;28;20053;-73
2021/05/18 14:18:09;;;;;;;1.95;0.40;;;;;;;;;;5030869;28;20456;-74
2021/05/18 14:20:37;;;;;;;3.30;0.60;;;;;;;;;;5037111;28;20068;-74
2021/05/18 14:23:04;;;;;;;3.00;0.60;;;;;;;;;;5031817;28;20060;-71
2021/05/18 14:25:31;;;;;;;3.40;0.70;;;;;;;;;;5020901;28;20457;-71
2021/05/18 14:28:17;;;;;;;1.50;0.32;;;;;;;;;;5028024;28;20049;-70
2021/05/18 14:30:45;;;;;;;2.38;1.15;;;;;;;;;;5032467;28;20092;-74
2021/05/18 14:33:12;;;;;;;1.15;0.28;;;;;;;;;;5030490;28;20571;-75
2021/05/18 14:35:38;;;;;;;1.15;0.38;;;;;;;;;;5006481;28;20048;-71
2021/05/18 14:40:53;;;;;;;1.95;0.30;;;;;;;;;;5011923;28;20045;-73
2021/05/18 14:46:17;;;;;;;9.20;0.85;;;;;;;;;;5000191;28;20484;-73
2021/05/18 14:56:47;;;;;;;0.93;0.38;;;;;;;;;;5030405;28;20053;-70
2021/05/18 14:59:14;;;;;;;1.65;0.50;;;;;;;;;;5030457;28;20428;-71
2021/05/18 15:01:41;;;;;;;0.98;0.30;;;;;;;;;;5027589;28;20049;-71
2021/05/18 15:04:09;;;;;;;1.13;0.40;;;;;;;;;;5030801;28;20115;-72
2021/05/18 15:06:36;;;;;;;0.73;0.30;;;;;;;;;;5030747;28;20420;-71
2021/05/18 15:09:04;;;;;;;1.08;0.30;;;;;;;;;;5030687;28;20102;-73
2021/05/18 15:11:30;;;;;;;0.73;0.30;;;;;;;;;;5020719;28;20349;-70
2021/05/18 15:13:58;;;;;;;0.82;0.38;;;;;;;;;;5030534;28;20054;-74
2021/05/18 15:16:27;;;;;;;1.35;0.30;;;;;;;;;;4997433;28;20059;-72
2021/05/18 15:19:02;;;;;;;0.85;0.25;;;;;;;;;;5030317;28;20041;-73
2021/05/18 15:21:30;;;;;;;0.43;0.20;;;;;;;;;;5029611;28;20092;-72
2021/05/18 15:23:58;;;;;;;1.92;0.20;;;;;;;;;;5028362;28;20107;-72
2021/05/18 15:26:26;;;;;;;0.47;0.20;;;;;;;;;;5030156;28;20053;-73
2021/05/18 15:28:54;;;;;;;2.30;0.52;;;;;;;;;;5019265;28;20125;-70
2021/05/18 15:31:24;;;;;;;0.77;0.40;;;;;;;;;;5030182;28;20500;-71
2021/05/18 15:33:52;;;;;;;1.50;0.32;;;;;;;;;;5030418;28;20057;-72
2021/05/18 15:36:21;;;;;;;1.55;0.47;;;;;;;;;;5030113;28;20400;-72
2021/05/18 15:38:48;;;;;;;0.40;0.30;;;;;;;;;;5028829;28;20103;-73
2021/05/18 15:41:16;;;;;;;1.50;0.17;;;;;;;;;;5027851;28;20049;-71
2021/05/18 15:43:45;;;;;;;1.45;0.20;;;;;;;;;;5026994;28;20428;-70
2021/05/18 15:46:13;;;;;;;0.65;0.10;;;;;;;;;;5025142;28;20123;-70
2021/05/18 15:48:40;;;;;;;1.05;0.50;;;;;;;;;;5028436;28;20049;-70
2021/05/18 15:51:08;;;;;;;0.47;0.20;;;;;;;;;;5043631;28;20487;-70
2021/05/18 15:53:35;;;;;;;1.30;0.20;;;;;;;;;;5028029;28;20049;-70
2021/05/18 15:56:04;;;;;;;0.50;0.20;;;;;;;;;;5026236;28;20054;-70
2021/05/18 15:58:31;;;;;;;0.85;0.35;;;;;;;;;;5028600;28;20057;-70
2021/05/18 16:00:59;;;;;;;3.35;0.60;;;;;;;;;;5032031;28;20163;-70
2021/05/18 16:03:26;;;;;;;0.68;0.50;;;;;;;;;;5032017;28;20550;-71
2021/05/18 16:05:53;;;;;;;0.95;0.40;;;;;;;;;;5031557;28;20051;-71
2021/05/18 16:11:02;;;;;;;0.95;0.30;;;;;;;;;;5030414;28;20053;-71
2021/05/18 16:13:29;;;;;;;0.40;0.30;;;;;;;;;;5032133;28;20404;-71
2021/05/18 16:15:59;;;;;;;1.05;0.30;;;;;;;;;;5030018;28;20576;-70
2021/05/18 16:18:26;;;;;;;0.40;0.32;;;;;;;;;;5031109;28;20269;-72
2021/05/18 16:20:53;;;;;;;0.60;0.20;;;;;;;;;;5031155;28;20053;-70
2021/05/18 16:23:21;;;;;;;1.13;0.52;;;;;;;;;;5028808;28;20054;-72
2021/05/18 16:25:48;;;;;;;1.90;0.40;;;;;;;;;;5030246;28;20041;-69
2021/05/18 16:28:16;;;;;;;0.32;0.32;;;;;;;;;;5029965;28;20049;-70
2021/05/18 16:30:43;;;;;;;1.10;0.60;;;;;;;;;;5030402;28;20049;-70
2021/05/18 16:33:11;;;;;;;2.33;0.60;;;;;;;;;;5014628;28;20092;-72
2021/05/18 16:35:38;;;;;;;1.52;0.40;;;;;;;;;;5025680;28;20103;-71
2021/05/18 16:38:05;;;;;;;0.32;0.20;;;;;;;;;;5030592;28;20371;-71
2021/05/18 16:40:33;;;;;;;5.43;0.50;;;;;;;;;;5031985;28;20064;-71
2021/05/18 16:43:02;;;;;;;0.38;0.30;;;;;;;;;;5021137;28;20046;-72
2021/05/18 16:45:29;;;;;;;0.90;0.22;;;;;;;;;;5030291;28;20124;-70
2021/05/18 16:47:57;;;;;;;1.85;0.40;;;;;;;;;;5031135;28;20217;-70
2021/05/18 16:50:24;;;;;;;3.13;0.70;;;;;;;;;;5028082;28;20106;-71
2021/05/18 16:52:52;;;;;;;3.13;0.60;;;;;;;;;;5030934;28;20725;-70
2021/05/18 16:55:19;;;;;;;1.73;0.60;;;;;;;;;;5031069;28;20049;-72
2021/05/18 16:57:46;;;;;;;1.20;0.50;;;;;;;;;;5020870;28;20512;-72
2021/05/18 17:00:14;;;;;;;2.25;0.55;;;;;;;;;;5032204;28;20099;-73
2021/05/18 17:02:41;;;;;;;2.65;0.60;;;;;;;;;;5026737;28;20055;-72
2021/05/18 17:05:09;;;;;;;4.20;0.90;;;;;;;;;;5031659;28;20050;-72
2021/05/18 17:07:36;;;;;;;1.63;0.60;;;;;;;;;;5013889;28;20053;-72
2021/05/18 17:10:04;;;;;;;2.60;0.70;;;;;;;;;;5046338;28;20077;-72
2021/05/18 17:12:31;;;;;;;3.50;1.30;;;;;;;;;;5031831;28;20508;-72
2021/05/18 17:14:57;;;;;;;2.65;0.70;;;;;;;;;;5019196;28;20132;-72
2021/05/18 17:17:27;;;;;;;2.53;0.82;;;;;;;;;;5035784;28;20086;-72
2021/05/18 17:19:55;;;;;;;1.33;0.70;;;;;;;;;;5030621;28;20053;-72
2021/05/18 17:22:24;;;;;;;0.77;0.50;;;;;;;;;;5030735;28;20064;-72
2021/05/18 17:24:52;;;;;;;1.52;1.38;;;;;;;;;;5030480;28;20050;-72
2021/05/18 17:27:19;;;;;;;0.35;0.32;;;;;;;;;;5030162;28;20539;-72
2021/05/18 17:29:46;;;;;;;1.42;0.70;;;;;;;;;;5025255;28;20071;-70
2021/05/18 17:32:13;;;;;;;0.77;0.50;;;;;;;;;;5030830;28;20053;-71
2021/05/18 17:34:40;;;;;;;2.15;0.82;;;;;;;;;;5029870;28;20045;-71
2021/05/18 17:37:08;;;;;;;1.40;0.82;;;;;;;;;;5030219;28;20511;-71
2021/05/18 17:39:37;;;;;;;2.70;0.55;;;;;;;;;;5029411;28;20120;-71
2021/05/18 17:42:05;;;;;;;1.20;0.40;;;;;;;;;;5030564;28;20053;-71
2021/05/18 17:44:32;;;;;;;1.95;0.30;;;;;;;;;;5030464;28;20057;-71
2021/05/18 17:46:59;;;;;;;0.75;0.40;;;;;;;;;;5024900;28;20104;-71
2021/05/18 17:49:25;;;;;;;0.52;0.40;;;;;;;;;;5026352;28;20137;-71
2021/05/18 17:51:52;;;;;;;2.22;0.60;;;;;;;;;;5027248;28;20053;-71
2021/05/18 17:54:21;;;;;;;0.43;0.40;;;;;;;;;;5009045;28;20504;-71
2021/05/18 17:56:49;;;;;;;3.33;0.60;;;;;;;;;;5024303;28;20053;-71
2021/05/18 17:59:15;;;;;;;0.30;0.30;;;;;;;;;;5021077;28;20110;-71
2021/05/18 18:01:43;;;;;;;1.00;0.47;;;;;;;;;;5022513;28;20081;-71
2021/05/18 18:04:09;;;;;;;2.85;0.60;;;;;;;;;;5026205;28;20056;-71
2021/05/18 18:06:36;;;;;;;0.55;0.40;;;;;;;;;;5022696;28;20045;-71
2021/05/18 18:09:04;;;;;;;0.82;0.40;;;;;;;;;;5024043;28;20049;-71
2021/05/18 18:11:31;;;;;;;1.70;0.52;;;;;;;;;;5027152;28;20095;-71
2021/05/18 18:13:58;;;;;;;1.63;0.50;;;;;;;;;;5026717;28;20246;-71
2021/05/18 18:16:24;;;;;;;0.80;0.55;;;;;;;;;;5025819;28;20061;-71
2021/05/18 18:18:51;;;;;;;0.50;0.40;;;;;;;;;;5042029;28;20072;-71
2021/05/18 18:21:18;;;;;;;0.88;0.50;;;;;;;;;;5028890;28;20060;-72
2021/05/18 18:23:45;;;;;;;0.60;0.57;;;;;;;;;;5027590;28;20050;-71
2021/05/18 18:26:13;;;;;;;1.35;0.73;;;;;;;;;;5018061;28;20049;-71
2021/05/18 18:28:40;;;;;;;0.80;0.68;;;;;;;;;;5028729;28;20056;-72
2021/05/18 18:31:06;;;;;;;1.00;0.63;;;;;;;;;;5029302;28;20536;-71
2021/05/18 18:33:33;;;;;;;4.10;1.05;;;;;;;;;;5020327;28;20132;-71
2021/05/18 18:36:01;;;;;;;2.13;0.50;;;;;;;;;;4994742;28;20038;-70
2021/05/18 18:38:28;;;;;;;0.93;0.60;;;;;;;;;;5026204;28;20056;-71
2021/05/18 18:40:55;;;;;;;3.08;0.93;;;;;;;;;;5025947;28;20413;-70
2021/05/18 18:43:22;;;;;;;1.02;0.90;;;;;;;;;;5028192;28;20052;-72
2021/05/18 18:45:49;;;;;;;1.88;1.27;;;;;;;;;;5017823;28;20045;-71
2021/05/18 18:48:18;;;;;;;1.67;1.10;;;;;;;;;;5025924;28;20052;-71
2021/05/18 18:51:11;;;;;;;2.50;0.75;;;;;;;;;;5020329;28;20623;-71
2021/05/18 18:53:39;;;;;;;1.90;0.90;;;;;;;;;;5025999;28;20281;-71
2021/05/18 18:56:06;;;;;;;2.08;0.70;;;;;;;;;;5026490;28;20050;-71
2021/05/18 18:58:32;;;;;;;1.35;0.68;;;;;;;;;;5026117;28;20563;-71
2021/05/18 19:00:59;;;;;;;0.55;0.55;;;;;;;;;;5025311;28;20084;-71
2021/05/18 19:03:32;;;;;;;2.03;0.70;;;;;;;;;;5029289;28;20053;-71
2021/05/18 19:06:19;;;;;;;0.90;0.70;;;;;;;;;;5017178;28;20057;-71
2021/05/18 19:11:50;;;;;;;1.48;0.98;;;;;;;;;;5028928;28;20511;-71
2021/05/18 19:14:18;;;;;;;2.80;1.10;;;;;;;;;;5028224;28;20516;-71
2021/05/18 19:16:45;;;;;;;1.20;0.90;;;;;;;;;;5027559;28;20053;-71
2021/05/18 19:19:15;;;;;;;1.63;0.80;;;;;;;;;;5028020;28;20119;-71
2021/05/18 19:21:43;;;;;;;1.30;0.82;;;;;;;;;;5028985;28;20053;-71
2021/05/18 19:24:11;;;;;;;2.13;1.00;;;;;;;;;;5024002;28;20079;-71
2021/05/18 19:26:38;;;;;;;2.17;1.10;;;;;;;;;;5028299;28;20041;-70
2021/05/18 19:29:06;;;;;;;0.88;0.70;;;;;;;;;;5028004;28;20053;-71
2021/05/18 19:31:33;;;;;;;2.03;1.20;;;;;;;;;;5027677;28;20049;-72
2021/05/18 19:34:00;;;;;;;2.13;1.00;;;;;;;;;;5022586;28;20571;-72
2021/05/18 19:42:13;;;;;;;2.42;0.73;;;;;;;;;;5020575;28;20053;-72
2021/05/18 19:50:11;;;;;;;2.03;1.08;;;;;;;;;;5034700;28;20053;-72
2021/05/18 19:52:40;;;;;;;4.00;1.40;;;;;;;;;;5024132;28;20057;-72
2021/05/18 19:55:08;;;;;;;1.80;1.23;;;;;;;;;;5022511;28;20046;-72
2021/05/18 19:57:44;;;;;;;1.60;1.00;;;;;;;;;;5025162;28;20500;-72
2021/05/18 20:22:17;;;;;;;1.45;1.00;;;;;;;;;;4974325;28;20462;-71
2021/05/18 20:24:45;;;;;;;1.10;1.00;;;;;;;;;;4974209;28;20451;-72
2021/05/18 20:27:12;;;;;;;1.60;1.10;;;;;;;;;;4996378;28;20049;-72
2021/05/18 20:29:42;;;;;;;3.28;1.52;;;;;;;;;;5035370;28;20864;-72
2021/05/18 20:32:11;;;;;;;3.50;1.40;;;;;;;;;;5027090;28;20053;-72
2021/05/18 20:40:06;;;;;;;3.05;1.38;;;;;;;;;;5028045;28;20045;-72
2021/05/18 20:42:33;;;;;;;1.92;1.75;;;;;;;;;;5030852;28;20081;-72
2021/05/18 20:45:03;;;;;;;1.95;1.83;;;;;;;;;;5031598;28;20200;-72
2021/05/18 20:47:32;;;;;;;4.53;1.45;;;;;;;;;;5027892;28;20045;-74
2021/05/18 20:50:06;;;;;;;1.73;1.42;;;;;;;;;;5025217;28;20107;-74
2021/05/18 20:52:33;;;;;;;1.85;1.00;;;;;;;;;;5025206;28;20054;-74
2021/05/18 20:55:00;;;;;;;1.23;1.00;;;;;;;;;;5013700;28;20467;-74
2021/05/18 20:57:26;;;;;;;2.35;1.73;;;;;;;;;;5014726;28;20500;-74
2021/05/18 20:59:53;;;;;;;1.45;1.25;;;;;;;;;;5014394;28;20058;-74
2021/05/18 21:02:20;;;;;;;1.30;0.70;;;;;;;;;;5015041;28;20054;-74